sensor_id;sensor_type;location;lat;lon;timestamp;P1;durP1;ratioP1;P2;durP2;ratioP2
8993;SDS011;4532;50.886;4.700;2023-03-23T00:01:21;2.55;;;2.25;;
8993;SDS011;4532;50.886;4.700;2023-03-23T00:03:52;3.65;;;2.40;;
8993;SDS011;4532;50.886;4.700;2023-03-23T00:06:23;5.35;;;2.60;;
8993;SDS011;4532;50.886;4.700;2023-03-23T00:08:51;3.13;;;2.60;;
8993;SDS011;4532;50.886;4.700;2023-03-23T00:11:28;4.60;;;2.50;;
8993;SDS011;4532;50.886;4.700;2023-03-23T00:13:58;4.17;;;2.83;;
8993;SDS011;4532;50.886;4.700;2023-03-23T00:16:30;4.40;;;2.80;;
8993;SDS011;4532;50.886;4.700;2023-03-23T00:19:02;3.57;;;2.70;;
8993;SDS011;4532;50.886;4.700;2023-03-23T00:21:35;3.40;;;2.70;;
8993;SDS011;4532;50.886;4.700;2023-03-23T00:24:22;5.13;;;2.83;;
8993;SDS011;4532;50.886;4.700;2023-03-23T00:26:50;2.97;;;2.60;;
8993;SDS011;4532;50.886;4.700;2023-03-23T00:29:21;2.97;;;2.65;;
8993;SDS011;4532;50.886;4.700;2023-03-23T00:31:51;5.13;;;2.80;;
8993;SDS011;4532;50.886;4.700;2023-03-23T00:34:22;3.83;;;2.60;;
8993;SDS011;4532;50.886;4.700;2023-03-23T00:36:52;3.35;;;3.00;;
8993;SDS011;4532;50.886;4.700;2023-03-23T00:39:22;4.80;;;2.60;;
8993;SDS011;4532;50.886;4.700;2023-03-23T00:41:52;4.70;;;2.80;;
8993;SDS011;4532;50.886;4.700;2023-03-23T00:44:32;3.60;;;3.30;;
8993;SDS011;4532;50.886;4.700;2023-03-23T00:47:02;3.67;;;2.77;;
8993;SDS011;4532;50.886;4.700;2023-03-23T00:49:33;4.28;;;2.78;;
8993;SDS011;4532;50.886;4.700;2023-03-23T00:52:01;4.43;;;2.60;;
8993;SDS011;4532;50.886;4.700;2023-03-23T00:54:29;3.77;;;2.80;;
8993;SDS011;4532;50.886;4.700;2023-03-23T00:56:57;4.20;;;2.80;;
8993;SDS011;4532;50.886;4.700;2023-03-23T00:59:23;4.07;;;3.13;;
8993;SDS011;4532;50.886;4.700;2023-03-23T01:01:50;4.68;;;2.90;;
8993;SDS011;4532;50.886;4.700;2023-03-23T01:04:18;3.50;;;2.50;;
8993;SDS011;4532;50.886;4.700;2023-03-23T01:06:46;3.25;;;2.50;;
8993;SDS011;4532;50.886;4.700;2023-03-23T01:09:19;4.83;;;2.77;;
8993;SDS011;4532;50.886;4.700;2023-03-23T01:11:50;5.77;;;3.17;;
8993;SDS011;4532;50.886;4.700;2023-03-23T01:14:23;5.17;;;2.90;;
8993;SDS011;4532;50.886;4.700;2023-03-23T01:16:54;3.53;;;2.73;;
8993;SDS011;4532;50.886;4.700;2023-03-23T01:19:23;3.43;;;2.60;;
8993;SDS011;4532;50.886;4.700;2023-03-23T01:21:51;3.38;;;2.70;;
8993;SDS011;4532;50.886;4.700;2023-03-23T01:24:19;2.53;;;2.27;;
8993;SDS011;4532;50.886;4.700;2023-03-23T01:26:46;4.80;;;2.90;;
8993;SDS011;4532;50.886;4.700;2023-03-23T01:29:12;4.22;;;2.47;;
8993;SDS011;4532;50.886;4.700;2023-03-23T01:31:41;3.25;;;2.85;;
8993;SDS011;4532;50.886;4.700;2023-03-23T01:34:10;6.13;;;2.92;;
8993;SDS011;4532;50.886;4.700;2023-03-23T01:36:39;3.70;;;2.90;;
8993;SDS011;4532;50.886;4.700;2023-03-23T01:39:05;3.00;;;2.70;;
8993;SDS011;4532;50.886;4.700;2023-03-23T01:41:32;4.35;;;2.60;;
8993;SDS011;4532;50.886;4.700;2023-03-23T01:44:03;4.22;;;2.80;;
8993;SDS011;4532;50.886;4.700;2023-03-23T01:46:30;4.65;;;2.90;;
8993;SDS011;4532;50.886;4.700;2023-03-23T01:49:01;3.57;;;2.67;;
8993;SDS011;4532;50.886;4.700;2023-03-23T01:51:36;2.90;;;2.37;;
8993;SDS011;4532;50.886;4.700;2023-03-23T01:54:10;4.47;;;2.80;;
8993;SDS011;4532;50.886;4.700;2023-03-23T01:56:46;3.67;;;2.60;;
8993;SDS011;4532;50.886;4.700;2023-03-23T01:59:22;4.28;;;2.78;;
8993;SDS011;4532;50.886;4.700;2023-03-23T02:01:54;3.23;;;2.10;;
8993;SDS011;4532;50.886;4.700;2023-03-23T02:04:23;4.50;;;2.50;;
8993;SDS011;4532;50.886;4.700;2023-03-23T02:06:51;4.37;;;2.60;;
8993;SDS011;4532;50.886;4.700;2023-03-23T02:09:18;4.23;;;2.90;;
8993;SDS011;4532;50.886;4.700;2023-03-23T02:11:45;3.33;;;2.50;;
8993;SDS011;4532;50.886;4.700;2023-03-23T02:14:14;4.03;;;2.57;;
8993;SDS011;4532;50.886;4.700;2023-03-23T02:19:15;3.25;;;2.85;;
8993;SDS011;4532;50.886;4.700;2023-03-23T02:25:05;2.97;;;2.53;;
8993;SDS011;4532;50.886;4.700;2023-03-23T02:27:54;4.57;;;2.50;;
8993;SDS011;4532;50.886;4.700;2023-03-23T02:36:14;4.30;;;2.63;;
8993;SDS011;4532;50.886;4.700;2023-03-23T02:38:55;3.80;;;2.50;;
8993;SDS011;4532;50.886;4.700;2023-03-23T02:41:36;4.13;;;2.47;;
8993;SDS011;4532;50.886;4.700;2023-03-23T02:44:14;4.53;;;2.40;;
8993;SDS011;4532;50.886;4.700;2023-03-23T02:46:42;3.80;;;2.23;;
8993;SDS011;4532;50.886;4.700;2023-03-23T02:49:09;4.80;;;2.70;;
8993;SDS011;4532;50.886;4.700;2023-03-23T02:51:39;3.95;;;2.35;;
8993;SDS011;4532;50.886;4.700;2023-03-23T02:54:08;6.47;;;2.28;;
8993;SDS011;4532;50.886;4.700;2023-03-23T02:56:36;3.83;;;2.20;;
8993;SDS011;4532;50.886;4.700;2023-03-23T02:59:06;4.88;;;2.47;;
8993;SDS011;4532;50.886;4.700;2023-03-23T03:04:10;3.65;;;2.17;;
8993;SDS011;4532;50.886;4.700;2023-03-23T03:09:26;6.03;;;1.77;;
8993;SDS011;4532;50.886;4.700;2023-03-23T03:11:56;3.72;;;1.92;;
8993;SDS011;4532;50.886;4.700;2023-03-23T03:14:37;3.25;;;2.22;;
8993;SDS011;4532;50.886;4.700;2023-03-23T03:17:21;4.65;;;2.05;;
8993;SDS011;4532;50.886;4.700;2023-03-23T03:19:50;2.75;;;1.67;;
8993;SDS011;4532;50.886;4.700;2023-03-23T03:22:27;4.25;;;2.30;;
8993;SDS011;4532;50.886;4.700;2023-03-23T03:24:55;2.87;;;1.80;;
8993;SDS011;4532;50.886;4.700;2023-03-23T03:27:25;3.55;;;1.90;;
8993;SDS011;4532;50.886;4.700;2023-03-23T03:29:54;5.20;;;2.10;;
8993;SDS011;4532;50.886;4.700;2023-03-23T03:32:31;2.37;;;1.70;;
8993;SDS011;4532;50.886;4.700;2023-03-23T03:35:04;3.43;;;1.97;;
8993;SDS011;4532;50.886;4.700;2023-03-23T03:37:38;4.27;;;2.00;;
8993;SDS011;4532;50.886;4.700;2023-03-23T03:40:10;4.10;;;2.00;;
8993;SDS011;4532;50.886;4.700;2023-03-23T03:42:38;3.77;;;2.00;;
8993;SDS011;4532;50.886;4.700;2023-03-23T03:45:06;3.17;;;1.90;;
8993;SDS011;4532;50.886;4.700;2023-03-23T03:47:44;3.35;;;1.90;;
8993;SDS011;4532;50.886;4.700;2023-03-23T03:50:11;3.87;;;2.10;;
8993;SDS011;4532;50.886;4.700;2023-03-23T03:52:40;5.32;;;2.13;;
8993;SDS011;4532;50.886;4.700;2023-03-23T03:55:06;5.65;;;2.15;;
8993;SDS011;4532;50.886;4.700;2023-03-23T03:57:34;3.90;;;2.08;;
8993;SDS011;4532;50.886;4.700;2023-03-23T04:00:04;3.10;;;1.88;;
8993;SDS011;4532;50.886;4.700;2023-03-23T04:02:43;2.72;;;1.83;;
8993;SDS011;4532;50.886;4.700;2023-03-23T04:05:12;2.60;;;1.80;;
8993;SDS011;4532;50.886;4.700;2023-03-23T04:07:41;4.20;;;2.20;;
8993;SDS011;4532;50.886;4.700;2023-03-23T04:10:10;3.43;;;2.00;;
8993;SDS011;4532;50.886;4.700;2023-03-23T04:12:41;6.17;;;2.30;;
8993;SDS011;4532;50.886;4.700;2023-03-23T04:15:07;3.67;;;1.67;;
8993;SDS011;4532;50.886;4.700;2023-03-23T04:17:36;2.47;;;1.80;;
8993;SDS011;4532;50.886;4.700;2023-03-23T04:20:03;3.13;;;1.70;;
8993;SDS011;4532;50.886;4.700;2023-03-23T04:22:45;5.40;;;2.50;;
8993;SDS011;4532;50.886;4.700;2023-03-23T04:25:15;5.57;;;2.20;;
8993;SDS011;4532;50.886;4.700;2023-03-23T04:27:46;7.63;;;2.10;;
8993;SDS011;4532;50.886;4.700;2023-03-23T04:30:18;4.03;;;1.90;;
8993;SDS011;4532;50.886;4.700;2023-03-23T04:32:49;3.78;;;2.00;;
8993;SDS011;4532;50.886;4.700;2023-03-23T04:35:21;4.57;;;1.90;;
8993;SDS011;4532;50.886;4.700;2023-03-23T04:37:53;5.15;;;1.55;;
8993;SDS011;4532;50.886;4.700;2023-03-23T04:40:22;5.25;;;1.70;;
8993;SDS011;4532;50.886;4.700;2023-03-23T04:42:53;5.20;;;1.73;;
8993;SDS011;4532;50.886;4.700;2023-03-23T04:45:31;5.50;;;1.80;;
8993;SDS011;4532;50.886;4.700;2023-03-23T04:48:00;6.40;;;1.97;;
8993;SDS011;4532;50.886;4.700;2023-03-23T04:50:27;4.72;;;1.45;;
8993;SDS011;4532;50.886;4.700;2023-03-23T04:53:02;6.20;;;1.57;;
8993;SDS011;4532;50.886;4.700;2023-03-23T04:55:32;7.80;;;1.88;;
8993;SDS011;4532;50.886;4.700;2023-03-23T04:58:09;6.78;;;1.95;;
8993;SDS011;4532;50.886;4.700;2023-03-23T05:00:42;4.75;;;2.05;;
8993;SDS011;4532;50.886;4.700;2023-03-23T05:03:20;5.72;;;1.60;;
8993;SDS011;4532;50.886;4.700;2023-03-23T05:05:46;6.40;;;1.52;;
8993;SDS011;4532;50.886;4.700;2023-03-23T05:08:21;4.78;;;1.67;;
8993;SDS011;4532;50.886;4.700;2023-03-23T05:10:52;4.57;;;1.70;;
8993;SDS011;4532;50.886;4.700;2023-03-23T05:13:22;4.75;;;1.20;;
8993;SDS011;4532;50.886;4.700;2023-03-23T05:15:48;3.77;;;1.30;;
8993;SDS011;4532;50.886;4.700;2023-03-23T05:18:20;5.13;;;1.53;;
8993;SDS011;4532;50.886;4.700;2023-03-23T05:20:46;5.27;;;1.73;;
8993;SDS011;4532;50.886;4.700;2023-03-23T05:23:19;4.40;;;1.40;;
8993;SDS011;4532;50.886;4.700;2023-03-23T05:25:54;4.18;;;1.50;;
8993;SDS011;4532;50.886;4.700;2023-03-23T05:28:21;2.30;;;1.30;;
8993;SDS011;4532;50.886;4.700;2023-03-23T05:30:50;3.58;;;1.20;;
8993;SDS011;4532;50.886;4.700;2023-03-23T05:33:19;3.00;;;1.20;;
8993;SDS011;4532;50.886;4.700;2023-03-23T05:35:48;6.85;;;1.67;;
8993;SDS011;4532;50.886;4.700;2023-03-23T05:38:16;6.80;;;1.70;;
8993;SDS011;4532;50.886;4.700;2023-03-23T05:40:45;5.35;;;1.38;;
8993;SDS011;4532;50.886;4.700;2023-03-23T05:43:11;5.10;;;1.40;;
8993;SDS011;4532;50.886;4.700;2023-03-23T05:45:37;4.20;;;1.38;;
8993;SDS011;4532;50.886;4.700;2023-03-23T05:48:04;6.68;;;1.60;;
8993;SDS011;4532;50.886;4.700;2023-03-23T05:50:30;3.70;;;1.30;;
8993;SDS011;4532;50.886;4.700;2023-03-23T05:52:56;3.50;;;1.33;;
8993;SDS011;4532;50.886;4.700;2023-03-23T05:55:22;3.00;;;1.60;;
8993;SDS011;4532;50.886;4.700;2023-03-23T05:57:55;3.70;;;1.30;;
8993;SDS011;4532;50.886;4.700;2023-03-23T06:00:21;3.60;;;1.23;;
8993;SDS011;4532;50.886;4.700;2023-03-23T06:02:56;4.20;;;1.37;;
8993;SDS011;4532;50.886;4.700;2023-03-23T06:05:22;7.35;;;1.55;;
8993;SDS011;4532;50.886;4.700;2023-03-23T06:07:53;3.40;;;1.50;;
8993;SDS011;4532;50.886;4.700;2023-03-23T06:10:25;4.57;;;1.70;;
8993;SDS011;4532;50.886;4.700;2023-03-23T06:12:54;5.43;;;1.37;;
8993;SDS011;4532;50.886;4.700;2023-03-23T06:15:20;4.27;;;1.50;;
8993;SDS011;4532;50.886;4.700;2023-03-23T06:17:50;4.35;;;1.50;;
8993;SDS011;4532;50.886;4.700;2023-03-23T06:20:24;4.63;;;1.50;;
8993;SDS011;4532;50.886;4.700;2023-03-23T06:22:50;5.40;;;1.40;;
8993;SDS011;4532;50.886;4.700;2023-03-23T06:25:18;5.13;;;1.75;;
8993;SDS011;4532;50.886;4.700;2023-03-23T06:27:44;4.15;;;1.63;;
8993;SDS011;4532;50.886;4.700;2023-03-23T06:30:13;3.37;;;1.33;;
8993;SDS011;4532;50.886;4.700;2023-03-23T06:32:40;4.07;;;1.60;;
8993;SDS011;4532;50.886;4.700;2023-03-23T06:35:12;4.27;;;1.60;;
8993;SDS011;4532;50.886;4.700;2023-03-23T06:37:38;5.00;;;1.93;;
8993;SDS011;4532;50.886;4.700;2023-03-23T06:40:05;4.90;;;1.60;;
8993;SDS011;4532;50.886;4.700;2023-03-23T06:42:32;5.60;;;1.70;;
8993;SDS011;4532;50.886;4.700;2023-03-23T06:44:59;4.57;;;1.60;;
8993;SDS011;4532;50.886;4.700;2023-03-23T06:47:27;5.03;;;1.90;;
8993;SDS011;4532;50.886;4.700;2023-03-23T06:49:56;5.40;;;2.10;;
8993;SDS011;4532;50.886;4.700;2023-03-23T06:52:23;8.90;;;2.30;;
8993;SDS011;4532;50.886;4.700;2023-03-23T06:54:50;6.03;;;2.03;;
8993;SDS011;4532;50.886;4.700;2023-03-23T06:57:21;7.05;;;2.17;;
8993;SDS011;4532;50.886;4.700;2023-03-23T06:59:47;9.20;;;1.88;;
8993;SDS011;4532;50.886;4.700;2023-03-23T07:02:13;5.67;;;1.77;;
8993;SDS011;4532;50.886;4.700;2023-03-23T07:04:45;5.30;;;1.70;;
8993;SDS011;4532;50.886;4.700;2023-03-23T07:07:14;5.68;;;1.65;;
8993;SDS011;4532;50.886;4.700;2023-03-23T07:09:44;5.17;;;1.60;;
8993;SDS011;4532;50.886;4.700;2023-03-23T07:12:14;4.80;;;1.53;;
8993;SDS011;4532;50.886;4.700;2023-03-23T07:14:43;6.37;;;1.90;;
8993;SDS011;4532;50.886;4.700;2023-03-23T07:17:11;6.47;;;1.80;;
8993;SDS011;4532;50.886;4.700;2023-03-23T07:19:40;3.83;;;1.67;;
8993;SDS011;4532;50.886;4.700;2023-03-23T07:22:07;7.38;;;2.00;;
8993;SDS011;4532;50.886;4.700;2023-03-23T07:24:33;4.32;;;1.52;;
8993;SDS011;4532;50.886;4.700;2023-03-23T07:27:01;6.13;;;2.25;;
8993;SDS011;4532;50.886;4.700;2023-03-23T07:29:29;6.40;;;1.67;;
8993;SDS011;4532;50.886;4.700;2023-03-23T07:31:58;5.47;;;2.03;;
8993;SDS011;4532;50.886;4.700;2023-03-23T07:34:27;3.63;;;1.40;;
8993;SDS011;4532;50.886;4.700;2023-03-23T07:36:53;6.68;;;1.17;;
8993;SDS011;4532;50.886;4.700;2023-03-23T07:39:24;1.50;;;0.67;;
8993;SDS011;4532;50.886;4.700;2023-03-23T07:41:55;2.92;;;0.40;;
8993;SDS011;4532;50.886;4.700;2023-03-23T07:44:24;2.58;;;0.65;;
8993;SDS011;4532;50.886;4.700;2023-03-23T07:46:50;1.63;;;0.70;;
8993;SDS011;4532;50.886;4.700;2023-03-23T07:49:19;1.80;;;0.60;;
8993;SDS011;4532;50.886;4.700;2023-03-23T07:51:47;2.20;;;0.50;;
8993;SDS011;4532;50.886;4.700;2023-03-23T07:54:18;1.83;;;0.70;;
8993;SDS011;4532;50.886;4.700;2023-03-23T07:56:47;2.17;;;0.60;;
8993;SDS011;4532;50.886;4.700;2023-03-23T07:59:15;2.30;;;0.60;;
8993;SDS011;4532;50.886;4.700;2023-03-23T08:01:41;1.93;;;0.70;;
8993;SDS011;4532;50.886;4.700;2023-03-23T08:04:10;2.33;;;0.80;;
8993;SDS011;4532;50.886;4.700;2023-03-23T08:06:38;3.83;;;1.00;;
8993;SDS011;4532;50.886;4.700;2023-03-23T08:09:07;6.17;;;2.03;;
8993;SDS011;4532;50.886;4.700;2023-03-23T08:11:36;4.60;;;1.50;;
8993;SDS011;4532;50.886;4.700;2023-03-23T08:14:06;3.63;;;1.70;;
8993;SDS011;4532;50.886;4.700;2023-03-23T08:16:35;3.33;;;1.30;;
8993;SDS011;4532;50.886;4.700;2023-03-23T08:19:06;3.63;;;1.50;;
8993;SDS011;4532;50.886;4.700;2023-03-23T08:21:34;4.53;;;1.47;;
8993;SDS011;4532;50.886;4.700;2023-03-23T08:24:01;2.73;;;1.67;;
8993;SDS011;4532;50.886;4.700;2023-03-23T08:26:29;4.37;;;1.20;;
8993;SDS011;4532;50.886;4.700;2023-03-23T08:28:55;3.07;;;1.10;;
8993;SDS011;4532;50.886;4.700;2023-03-23T08:31:22;2.63;;;1.40;;
8993;SDS011;4532;50.886;4.700;2023-03-23T08:33:49;6.67;;;1.40;;
8993;SDS011;4532;50.886;4.700;2023-03-23T08:36:17;3.03;;;1.40;;
8993;SDS011;4532;50.886;4.700;2023-03-23T08:38:43;3.23;;;1.00;;
8993;SDS011;4532;50.886;4.700;2023-03-23T08:41:09;4.07;;;1.30;;
8993;SDS011;4532;50.886;4.700;2023-03-23T08:43:38;4.17;;;1.00;;
8993;SDS011;4532;50.886;4.700;2023-03-23T08:46:10;2.80;;;0.80;;
8993;SDS011;4532;50.886;4.700;2023-03-23T08:48:38;3.23;;;1.10;;
8993;SDS011;4532;50.886;4.700;2023-03-23T08:51:05;2.80;;;1.00;;
8993;SDS011;4532;50.886;4.700;2023-03-23T08:53:34;4.03;;;1.10;;
8993;SDS011;4532;50.886;4.700;2023-03-23T08:56:04;4.27;;;0.90;;
8993;SDS011;4532;50.886;4.700;2023-03-23T08:58:35;2.63;;;1.00;;
8993;SDS011;4532;50.886;4.700;2023-03-23T09:01:03;3.33;;;1.00;;
8993;SDS011;4532;50.886;4.700;2023-03-23T09:03:33;2.43;;;0.90;;
8993;SDS011;4532;50.886;4.700;2023-03-23T09:06:05;3.37;;;0.80;;
8993;SDS011;4532;50.886;4.700;2023-03-23T09:08:34;4.73;;;1.20;;
8993;SDS011;4532;50.886;4.700;2023-03-23T09:11:01;2.00;;;0.80;;
8993;SDS011;4532;50.886;4.700;2023-03-23T09:13:28;3.07;;;0.77;;
8993;SDS011;4532;50.886;4.700;2023-03-23T09:15:55;3.87;;;0.87;;
8993;SDS011;4532;50.886;4.700;2023-03-23T09:18:21;2.60;;;1.07;;
8993;SDS011;4532;50.886;4.700;2023-03-23T09:20:50;2.58;;;1.00;;
8993;SDS011;4532;50.886;4.700;2023-03-23T09:23:19;3.70;;;1.00;;
8993;SDS011;4532;50.886;4.700;2023-03-23T09:25:48;1.87;;;0.87;;
8993;SDS011;4532;50.886;4.700;2023-03-23T09:28:14;1.93;;;0.80;;
8993;SDS011;4532;50.886;4.700;2023-03-23T09:30:40;3.43;;;1.00;;
8993;SDS011;4532;50.886;4.700;2023-03-23T09:33:10;3.50;;;1.00;;
8993;SDS011;4532;50.886;4.700;2023-03-23T09:35:37;2.30;;;1.20;;
8993;SDS011;4532;50.886;4.700;2023-03-23T09:38:06;3.00;;;0.80;;
8993;SDS011;4532;50.886;4.700;2023-03-23T09:46:34;3.73;;;0.70;;
8993;SDS011;4532;50.886;4.700;2023-03-23T09:49:18;1.40;;;0.63;;
8993;SDS011;4532;50.886;4.700;2023-03-23T09:54:50;5.22;;;1.08;;
8993;SDS011;4532;50.886;4.700;2023-03-23T10:00:06;3.20;;;1.07;;
8993;SDS011;4532;50.886;4.700;2023-03-23T10:02:40;3.90;;;1.30;;
8993;SDS011;4532;50.886;4.700;2023-03-23T10:07:55;2.25;;;0.80;;
8993;SDS011;4532;50.886;4.700;2023-03-23T10:10:23;1.17;;;0.80;;
8993;SDS011;4532;50.886;4.700;2023-03-23T10:13:01;1.60;;;0.90;;
8993;SDS011;4532;50.886;4.700;2023-03-23T10:15:51;2.60;;;1.00;;
8993;SDS011;4532;50.886;4.700;2023-03-23T10:18:36;2.47;;;0.90;;
8993;SDS011;4532;50.886;4.700;2023-03-23T10:21:23;1.97;;;1.13;;
8993;SDS011;4532;50.886;4.700;2023-03-23T10:24:02;2.60;;;1.03;;
8993;SDS011;4532;50.886;4.700;2023-03-23T10:29:33;2.53;;;0.90;;
8993;SDS011;4532;50.886;4.700;2023-03-23T10:32:11;4.63;;;1.10;;
8993;SDS011;4532;50.886;4.700;2023-03-23T10:34:45;6.03;;;1.20;;
8993;SDS011;4532;50.886;4.700;2023-03-23T10:37:22;3.40;;;1.90;;
8993;SDS011;4532;50.886;4.700;2023-03-23T10:40:00;2.80;;;1.10;;
8993;SDS011;4532;50.886;4.700;2023-03-23T10:42:33;5.27;;;1.57;;
8993;SDS011;4532;50.886;4.700;2023-03-23T10:47:49;2.43;;;1.30;;
8993;SDS011;4532;50.886;4.700;2023-03-23T10:50:26;2.38;;;1.42;;
8993;SDS011;4532;50.886;4.700;2023-03-23T10:52:58;5.40;;;1.77;;
8993;SDS011;4532;50.886;4.700;2023-03-23T10:55:35;6.53;;;2.47;;
8993;SDS011;4532;50.886;4.700;2023-03-23T10:58:10;2.97;;;1.63;;
8993;SDS011;4532;50.886;4.700;2023-03-23T11:00:42;6.45;;;2.03;;
8993;SDS011;4532;50.886;4.700;2023-03-23T11:08:16;56.07;;;7.17;;
8993;SDS011;4532;50.886;4.700;2023-03-23T11:10:54;38.63;;;6.90;;
8993;SDS011;4532;50.886;4.700;2023-03-23T11:13:22;13.18;;;3.30;;
8993;SDS011;4532;50.886;4.700;2023-03-23T11:15:55;9.23;;;2.80;;
8993;SDS011;4532;50.886;4.700;2023-03-23T11:18:24;18.23;;;3.40;;
8993;SDS011;4532;50.886;4.700;2023-03-23T11:21:01;12.10;;;3.53;;
8993;SDS011;4532;50.886;4.700;2023-03-23T11:23:41;53.03;;;8.82;;
8993;SDS011;4532;50.886;4.700;2023-03-23T11:26:19;16.75;;;4.45;;
8993;SDS011;4532;50.886;4.700;2023-03-23T11:29:10;34.97;;;7.03;;
8993;SDS011;4532;50.886;4.700;2023-03-23T11:31:43;9.57;;;3.45;;
8993;SDS011;4532;50.886;4.700;2023-03-23T11:36:48;6.50;;;4.07;;
8993;SDS011;4532;50.886;4.700;2023-03-23T11:39:28;25.67;;;7.53;;
8993;SDS011;4532;50.886;4.700;2023-03-23T11:42:00;16.83;;;6.40;;
8993;SDS011;4532;50.886;4.700;2023-03-23T11:44:40;19.63;;;6.32;;
8993;SDS011;4532;50.886;4.700;2023-03-23T11:47:15;10.57;;;5.40;;
8993;SDS011;4532;50.886;4.700;2023-03-23T11:52:22;9.73;;;5.32;;
8993;SDS011;4532;50.886;4.700;2023-03-23T11:55:10;6.95;;;4.18;;
8993;SDS011;4532;50.886;4.700;2023-03-23T11:57:43;5.57;;;3.60;;
8993;SDS011;4532;50.886;4.700;2023-03-23T12:00:21;10.80;;;3.72;;
8993;SDS011;4532;50.886;4.700;2023-03-23T12:02:59;8.65;;;2.70;;
8993;SDS011;4532;50.886;4.700;2023-03-23T12:05:52;4.47;;;2.33;;
8993;SDS011;4532;50.886;4.700;2023-03-23T12:22:28;5.00;;;2.30;;
8993;SDS011;4532;50.886;4.700;2023-03-23T12:32:48;8.80;;;2.33;;
8993;SDS011;4532;50.886;4.700;2023-03-23T12:40:51;6.80;;;2.33;;
8993;SDS011;4532;50.886;4.700;2023-03-23T12:49:04;6.00;;;2.50;;
8993;SDS011;4532;50.886;4.700;2023-03-23T12:56:47;35.95;;;6.03;;
8993;SDS011;4532;50.886;4.700;2023-03-23T13:07:49;14.40;;;4.28;;
8993;SDS011;4532;50.886;4.700;2023-03-23T13:10:45;9.23;;;3.90;;
8993;SDS011;4532;50.886;4.700;2023-03-23T13:13:18;10.02;;;3.88;;
8993;SDS011;4532;50.886;4.700;2023-03-23T13:21:32;11.15;;;3.63;;
8993;SDS011;4532;50.886;4.700;2023-03-23T13:24:08;12.40;;;2.78;;
8993;SDS011;4532;50.886;4.700;2023-03-23T13:26:41;12.18;;;3.47;;
8993;SDS011;4532;50.886;4.700;2023-03-23T13:29:14;21.27;;;4.35;;
8993;SDS011;4532;50.886;4.700;2023-03-23T13:31:49;16.65;;;4.10;;
8993;SDS011;4532;50.886;4.700;2023-03-23T13:34:28;18.25;;;4.50;;
8993;SDS011;4532;50.886;4.700;2023-03-23T13:36:59;9.13;;;3.88;;
8993;SDS011;4532;50.886;4.700;2023-03-23T13:44:41;6.60;;;3.40;;
8993;SDS011;4532;50.886;4.700;2023-03-23T13:49:54;8.43;;;3.05;;
8993;SDS011;4532;50.886;4.700;2023-03-23T13:58:27;8.40;;;2.40;;
8993;SDS011;4532;50.886;4.700;2023-03-23T14:03:38;10.38;;;2.78;;
8993;SDS011;4532;50.886;4.700;2023-03-23T14:06:15;6.18;;;3.33;;
8993;SDS011;4532;50.886;4.700;2023-03-23T14:08:45;7.70;;;3.13;;
8993;SDS011;4532;50.886;4.700;2023-03-23T14:16:38;14.07;;;3.72;;
8993;SDS011;4532;50.886;4.700;2023-03-23T14:19:25;17.00;;;5.70;;
8993;SDS011;4532;50.886;4.700;2023-03-23T14:29:31;49.78;;;7.97;;
8993;SDS011;4532;50.886;4.700;2023-03-23T14:31:57;27.17;;;4.40;;
8993;SDS011;4532;50.886;4.700;2023-03-23T14:34:31;20.23;;;4.90;;
8993;SDS011;4532;50.886;4.700;2023-03-23T14:37:02;25.35;;;4.85;;
8993;SDS011;4532;50.886;4.700;2023-03-23T14:42:02;18.92;;;3.38;;
8993;SDS011;4532;50.886;4.700;2023-03-23T14:44:31;25.63;;;4.57;;
8993;SDS011;4532;50.886;4.700;2023-03-23T14:47:04;26.70;;;4.57;;
8993;SDS011;4532;50.886;4.700;2023-03-23T14:49:36;30.67;;;5.95;;
8993;SDS011;4532;50.886;4.700;2023-03-23T14:52:14;24.90;;;4.47;;
8993;SDS011;4532;50.886;4.700;2023-03-23T14:54:42;15.23;;;4.35;;
8993;SDS011;4532;50.886;4.700;2023-03-23T14:57:26;9.23;;;3.22;;
8993;SDS011;4532;50.886;4.700;2023-03-23T14:59:56;10.68;;;2.63;;
8993;SDS011;4532;50.886;4.700;2023-03-23T15:02:29;16.73;;;3.65;;
8993;SDS011;4532;50.886;4.700;2023-03-23T15:07:33;21.15;;;3.80;;
8993;SDS011;4532;50.886;4.700;2023-03-23T15:10:07;29.40;;;5.38;;
8993;SDS011;4532;50.886;4.700;2023-03-23T15:12:40;22.52;;;4.38;;
8993;SDS011;4532;50.886;4.700;2023-03-23T15:15:19;11.27;;;2.85;;
8993;SDS011;4532;50.886;4.700;2023-03-23T15:17:52;9.15;;;2.42;;
8993;SDS011;4532;50.886;4.700;2023-03-23T15:22:54;9.90;;;2.42;;
8993;SDS011;4532;50.886;4.700;2023-03-23T15:27:53;8.48;;;2.22;;
8993;SDS011;4532;50.886;4.700;2023-03-23T15:30:46;5.82;;;2.08;;
8993;SDS011;4532;50.886;4.700;2023-03-23T15:33:21;8.73;;;2.40;;
8993;SDS011;4532;50.886;4.700;2023-03-23T15:35:52;9.18;;;2.85;;
8993;SDS011;4532;50.886;4.700;2023-03-23T15:38:21;11.90;;;2.80;;
8993;SDS011;4532;50.886;4.700;2023-03-23T15:40:51;4.63;;;1.80;;
8993;SDS011;4532;50.886;4.700;2023-03-23T15:43:25;7.63;;;2.53;;
8993;SDS011;4532;50.886;4.700;2023-03-23T15:45:54;11.80;;;2.50;;
8993;SDS011;4532;50.886;4.700;2023-03-23T15:48:31;8.07;;;2.42;;
8993;SDS011;4532;50.886;4.700;2023-03-23T15:51:16;5.47;;;2.10;;
8993;SDS011;4532;50.886;4.700;2023-03-23T15:53:44;28.83;;;4.78;;
8993;SDS011;4532;50.886;4.700;2023-03-23T15:56:11;11.80;;;3.47;;
8993;SDS011;4532;50.886;4.700;2023-03-23T15:58:40;11.00;;;3.13;;
8993;SDS011;4532;50.886;4.700;2023-03-23T16:01:11;6.15;;;2.17;;
8993;SDS011;4532;50.886;4.700;2023-03-23T16:06:12;8.02;;;2.47;;
8993;SDS011;4532;50.886;4.700;2023-03-23T16:08:50;6.68;;;2.38;;
8993;SDS011;4532;50.886;4.700;2023-03-23T16:11:24;8.65;;;2.10;;
8993;SDS011;4532;50.886;4.700;2023-03-23T16:13:52;7.60;;;2.45;;
8993;SDS011;4532;50.886;4.700;2023-03-23T16:16:26;10.85;;;3.47;;
8993;SDS011;4532;50.886;4.700;2023-03-23T16:18:57;14.80;;;3.45;;
8993;SDS011;4532;50.886;4.700;2023-03-23T16:21:27;7.00;;;2.60;;
8993;SDS011;4532;50.886;4.700;2023-03-23T16:23:54;17.55;;;3.40;;
8993;SDS011;4532;50.886;4.700;2023-03-23T16:26:22;9.20;;;2.40;;
8993;SDS011;4532;50.886;4.700;2023-03-23T16:28:50;6.75;;;2.88;;
8993;SDS011;4532;50.886;4.700;2023-03-23T16:31:35;5.68;;;1.95;;
8993;SDS011;4532;50.886;4.700;2023-03-23T16:34:07;8.95;;;2.28;;
8993;SDS011;4532;50.886;4.700;2023-03-23T16:36:34;11.52;;;2.83;;
8993;SDS011;4532;50.886;4.700;2023-03-23T16:39:02;8.30;;;2.42;;
8993;SDS011;4532;50.886;4.700;2023-03-23T16:41:31;6.50;;;2.78;;
8993;SDS011;4532;50.886;4.700;2023-03-23T16:44:01;6.18;;;2.50;;
8993;SDS011;4532;50.886;4.700;2023-03-23T16:46:30;4.65;;;2.33;;
8993;SDS011;4532;50.886;4.700;2023-03-23T16:49:02;10.35;;;2.72;;
8993;SDS011;4532;50.886;4.700;2023-03-23T16:51:32;8.63;;;2.65;;
8993;SDS011;4532;50.886;4.700;2023-03-23T16:54:03;8.35;;;2.50;;
8993;SDS011;4532;50.886;4.700;2023-03-23T16:56:35;11.23;;;2.30;;
8993;SDS011;4532;50.886;4.700;2023-03-23T16:59:08;10.75;;;2.83;;
8993;SDS011;4532;50.886;4.700;2023-03-23T17:01:38;7.97;;;2.13;;
8993;SDS011;4532;50.886;4.700;2023-03-23T17:04:10;9.70;;;3.00;;
8993;SDS011;4532;50.886;4.700;2023-03-23T17:06:37;10.32;;;2.42;;
8993;SDS011;4532;50.886;4.700;2023-03-23T17:09:04;6.65;;;2.17;;
8993;SDS011;4532;50.886;4.700;2023-03-23T17:11:35;8.95;;;2.63;;
8993;SDS011;4532;50.886;4.700;2023-03-23T17:14:04;13.20;;;2.67;;
8993;SDS011;4532;50.886;4.700;2023-03-23T17:16:34;11.13;;;2.85;;
8993;SDS011;4532;50.886;4.700;2023-03-23T17:19:01;13.27;;;2.65;;
8993;SDS011;4532;50.886;4.700;2023-03-23T17:21:32;10.68;;;2.15;;
8993;SDS011;4532;50.886;4.700;2023-03-23T17:24:03;8.07;;;2.58;;
8993;SDS011;4532;50.886;4.700;2023-03-23T17:26:33;6.28;;;2.40;;
8993;SDS011;4532;50.886;4.700;2023-03-23T17:29:02;8.35;;;2.47;;
8993;SDS011;4532;50.886;4.700;2023-03-23T17:31:32;7.00;;;2.42;;
8993;SDS011;4532;50.886;4.700;2023-03-23T17:34:00;8.55;;;2.40;;
8993;SDS011;4532;50.886;4.700;2023-03-23T17:36:32;7.38;;;2.35;;
8993;SDS011;4532;50.886;4.700;2023-03-23T17:38:59;7.60;;;2.60;;
8993;SDS011;4532;50.886;4.700;2023-03-23T17:41:28;4.15;;;1.90;;
8993;SDS011;4532;50.886;4.700;2023-03-23T17:43:56;8.50;;;2.60;;
8993;SDS011;4532;50.886;4.700;2023-03-23T17:46:25;6.57;;;2.50;;
8993;SDS011;4532;50.886;4.700;2023-03-23T17:48:55;8.27;;;3.00;;
8993;SDS011;4532;50.886;4.700;2023-03-23T17:51:24;8.55;;;2.92;;
8993;SDS011;4532;50.886;4.700;2023-03-23T17:53:54;8.07;;;2.88;;
8993;SDS011;4532;50.886;4.700;2023-03-23T17:56:23;5.35;;;2.20;;
8993;SDS011;4532;50.886;4.700;2023-03-23T17:58:50;8.55;;;2.80;;